Terminal Aerodrome Forecast
Issued by NWS Cleveland, OH

Home | Current Version | Previous Version | Graphics & Text | Print | Product List | Glossary On
Versions: 1 2 3 4 5 6 7 8 9 10 11 12 13
000
FTUS41 KCLE 031736
TAFERI
TAF
KERI 031736Z 0318/0418 32007KT P6SM SCT060
     FM040000 18003KT P6SM SCT200
      TEMPO 0410/0412 4SM BR
     FM041400 14005KT P6SM SCT060=

USA.gov is the U.S. government's official web portal to all federal, state and local government web resources and services.